sensor_id;sensor_type;location;lat;lon;timestamp;temperature;humidity
39019;DHT22;24786;51.984;5.872;2023-08-06T00:01:43;15.80;99.90
39019;DHT22;24786;51.984;5.872;2023-08-06T00:04:08;15.80;99.90
39019;DHT22;24786;51.984;5.872;2023-08-06T00:06:34;15.80;99.90
39019;DHT22;24786;51.984;5.872;2023-08-06T00:08:59;15.80;99.90
39019;DHT22;24786;51.984;5.872;2023-08-06T00:11:25;15.80;99.90
39019;DHT22;24786;51.984;5.872;2023-08-06T00:13:51;15.90;99.90
39019;DHT22;24786;51.984;5.872;2023-08-06T00:16:16;15.80;99.90
39019;DHT22;24786;51.984;5.872;2023-08-06T00:18:42;15.80;99.90
39019;DHT22;24786;51.984;5.872;2023-08-06T00:21:07;15.80;99.90
39019;DHT22;24786;51.984;5.872;2023-08-06T00:23:33;15.80;99.90
39019;DHT22;24786;51.984;5.872;2023-08-06T00:25:58;15.80;99.90
39019;DHT22;24786;51.984;5.872;2023-08-06T00:28:24;15.80;99.90
39019;DHT22;24786;51.984;5.872;2023-08-06T00:30:55;15.80;99.90
39019;DHT22;24786;51.984;5.872;2023-08-06T00:33:21;15.80;99.90
39019;DHT22;24786;51.984;5.872;2023-08-06T00:35:46;15.80;99.90
39019;DHT22;24786;51.984;5.872;2023-08-06T00:38:12;15.80;99.90
39019;DHT22;24786;51.984;5.872;2023-08-06T00:40:37;15.90;99.90
39019;DHT22;24786;51.984;5.872;2023-08-06T00:43:03;15.80;99.90
39019;DHT22;24786;51.984;5.872;2023-08-06T00:45:28;15.80;99.90
39019;DHT22;24786;51.984;5.872;2023-08-06T00:47:55;15.70;99.90
39019;DHT22;24786;51.984;5.872;2023-08-06T00:50:20;15.70;99.90
39019;DHT22;24786;51.984;5.872;2023-08-06T00:52:48;15.70;99.90
39019;DHT22;24786;51.984;5.872;2023-08-06T00:55:14;15.70;99.90
39019;DHT22;24786;51.984;5.872;2023-08-06T00:57:40;15.70;99.90
39019;DHT22;24786;51.984;5.872;2023-08-06T01:00:06;15.70;99.90
39019;DHT22;24786;51.984;5.872;2023-08-06T01:02:31;15.60;99.90
39019;DHT22;24786;51.984;5.872;2023-08-06T01:04:57;15.60;99.90
39019;DHT22;24786;51.984;5.872;2023-08-06T01:10:16;15.60;99.90
39019;DHT22;24786;51.984;5.872;2023-08-06T01:12:49;15.60;99.90
39019;DHT22;24786;51.984;5.872;2023-08-06T01:15:30;15.60;99.90
39019;DHT22;24786;51.984;5.872;2023-08-06T01:17:58;15.60;99.90
39019;DHT22;24786;51.984;5.872;2023-08-06T01:20:30;15.60;99.90
39019;DHT22;24786;51.984;5.872;2023-08-06T01:22:55;15.50;99.90
39019;DHT22;24786;51.984;5.872;2023-08-06T01:25:21;15.50;99.90
39019;DHT22;24786;51.984;5.872;2023-08-06T01:27:48;15.50;99.90
39019;DHT22;24786;51.984;5.872;2023-08-06T01:30:17;15.50;99.90
39019;DHT22;24786;51.984;5.872;2023-08-06T01:32:46;15.50;99.90
39019;DHT22;24786;51.984;5.872;2023-08-06T01:35:15;15.50;99.90
39019;DHT22;24786;51.984;5.872;2023-08-06T01:37:41;15.50;99.90
39019;DHT22;24786;51.984;5.872;2023-08-06T01:40:10;15.50;99.90
39019;DHT22;24786;51.984;5.872;2023-08-06T01:42:36;15.50;99.90
39019;DHT22;24786;51.984;5.872;2023-08-06T01:45:01;15.50;99.90
39019;DHT22;24786;51.984;5.872;2023-08-06T01:47:27;15.50;99.90
39019;DHT22;24786;51.984;5.872;2023-08-06T01:49:52;15.50;99.90
39019;DHT22;24786;51.984;5.872;2023-08-06T01:52:18;15.50;99.90
39019;DHT22;24786;51.984;5.872;2023-08-06T01:54:43;15.50;99.90
39019;DHT22;24786;51.984;5.872;2023-08-06T01:57:08;15.50;99.90
39019;DHT22;24786;51.984;5.872;2023-08-06T01:59:34;15.50;99.90
39019;DHT22;24786;51.984;5.872;2023-08-06T02:01:59;15.50;99.90
39019;DHT22;24786;51.984;5.872;2023-08-06T02:04:25;15.50;99.90
39019;DHT22;24786;51.984;5.872;2023-08-06T02:06:50;15.50;99.90
39019;DHT22;24786;51.984;5.872;2023-08-06T02:09:16;15.50;99.90
39019;DHT22;24786;51.984;5.872;2023-08-06T02:11:41;15.40;99.90
39019;DHT22;24786;51.984;5.872;2023-08-06T02:14:07;15.50;99.90
39019;DHT22;24786;51.984;5.872;2023-08-06T02:16:32;15.50;99.90
39019;DHT22;24786;51.984;5.872;2023-08-06T02:18:58;15.40;99.90
39019;DHT22;24786;51.984;5.872;2023-08-06T02:21:23;15.40;99.90
39019;DHT22;24786;51.984;5.872;2023-08-06T02:23:48;15.40;99.90
39019;DHT22;24786;51.984;5.872;2023-08-06T02:26:14;15.40;99.90
39019;DHT22;24786;51.984;5.872;2023-08-06T02:28:40;15.50;99.90
39019;DHT22;24786;51.984;5.872;2023-08-06T02:31:05;15.40;99.90
39019;DHT22;24786;51.984;5.872;2023-08-06T02:33:32;15.50;99.90
39019;DHT22;24786;51.984;5.872;2023-08-06T02:36:00;15.40;99.90
39019;DHT22;24786;51.984;5.872;2023-08-06T02:38:26;15.40;99.90
39019;DHT22;24786;51.984;5.872;2023-08-06T02:40:52;15.40;99.90
39019;DHT22;24786;51.984;5.872;2023-08-06T02:43:17;15.40;99.90
39019;DHT22;24786;51.984;5.872;2023-08-06T02:45:43;15.50;99.90
39019;DHT22;24786;51.984;5.872;2023-08-06T02:48:08;15.40;99.90
39019;DHT22;24786;51.984;5.872;2023-08-06T02:50:37;15.50;99.90
39019;DHT22;24786;51.984;5.872;2023-08-06T02:53:03;15.50;99.90
39019;DHT22;24786;51.984;5.872;2023-08-06T02:55:28;15.50;99.90
39019;DHT22;24786;51.984;5.872;2023-08-06T02:57:54;15.50;99.90
39019;DHT22;24786;51.984;5.872;2023-08-06T03:00:19;15.50;99.90
39019;DHT22;24786;51.984;5.872;2023-08-06T03:02:45;15.50;99.90
39019;DHT22;24786;51.984;5.872;2023-08-06T03:05:10;15.50;99.90
39019;DHT22;24786;51.984;5.872;2023-08-06T03:07:36;15.50;99.90
39019;DHT22;24786;51.984;5.872;2023-08-06T03:10:03;15.50;99.90
39019;DHT22;24786;51.984;5.872;2023-08-06T03:12:28;15.50;99.90
39019;DHT22;24786;51.984;5.872;2023-08-06T03:14:54;15.50;99.90
39019;DHT22;24786;51.984;5.872;2023-08-06T03:17:19;15.50;99.90
39019;DHT22;24786;51.984;5.872;2023-08-06T03:19:44;15.50;99.90
39019;DHT22;24786;51.984;5.872;2023-08-06T03:22:10;15.50;99.90
39019;DHT22;24786;51.984;5.872;2023-08-06T03:24:35;15.60;99.90
39019;DHT22;24786;51.984;5.872;2023-08-06T03:27:01;15.50;99.90
39019;DHT22;24786;51.984;5.872;2023-08-06T03:29:27;15.50;99.90
39019;DHT22;24786;51.984;5.872;2023-08-06T03:31:52;15.40;99.90
39019;DHT22;24786;51.984;5.872;2023-08-06T03:34:18;15.50;99.90
39019;DHT22;24786;51.984;5.872;2023-08-06T03:36:43;15.50;99.90
39019;DHT22;24786;51.984;5.872;2023-08-06T03:39:09;15.50;99.90
39019;DHT22;24786;51.984;5.872;2023-08-06T03:41:35;15.50;99.90
39019;DHT22;24786;51.984;5.872;2023-08-06T03:44:00;15.50;99.90
39019;DHT22;24786;51.984;5.872;2023-08-06T03:46:28;15.50;99.90
39019;DHT22;24786;51.984;5.872;2023-08-06T03:48:53;15.40;99.90
39019;DHT22;24786;51.984;5.872;2023-08-06T03:51:19;15.50;99.90
39019;DHT22;24786;51.984;5.872;2023-08-06T03:53:44;15.50;99.90
39019;DHT22;24786;51.984;5.872;2023-08-06T03:56:10;15.50;99.90
39019;DHT22;24786;51.984;5.872;2023-08-06T03:58:35;15.50;99.90
39019;DHT22;24786;51.984;5.872;2023-08-06T04:01:01;15.40;99.90
39019;DHT22;24786;51.984;5.872;2023-08-06T04:03:27;15.50;99.90
39019;DHT22;24786;51.984;5.872;2023-08-06T04:05:53;15.50;99.90
39019;DHT22;24786;51.984;5.872;2023-08-06T04:08:19;15.50;99.90
39019;DHT22;24786;51.984;5.872;2023-08-06T04:10:44;15.50;99.90
39019;DHT22;24786;51.984;5.872;2023-08-06T04:13:10;15.50;99.90
39019;DHT22;24786;51.984;5.872;2023-08-06T04:15:35;15.50;99.90
39019;DHT22;24786;51.984;5.872;2023-08-06T04:18:01;15.50;99.90
39019;DHT22;24786;51.984;5.872;2023-08-06T04:20:26;15.50;99.90
39019;DHT22;24786;51.984;5.872;2023-08-06T04:22:54;15.50;99.90
39019;DHT22;24786;51.984;5.872;2023-08-06T04:25:19;15.50;99.90
39019;DHT22;24786;51.984;5.872;2023-08-06T04:27:48;15.50;99.90
39019;DHT22;24786;51.984;5.872;2023-08-06T04:30:14;15.50;99.90
39019;DHT22;24786;51.984;5.872;2023-08-06T04:32:39;15.50;99.90
39019;DHT22;24786;51.984;5.872;2023-08-06T04:35:05;15.50;99.90
39019;DHT22;24786;51.984;5.872;2023-08-06T04:37:31;15.50;99.90
39019;DHT22;24786;51.984;5.872;2023-08-06T04:39:56;15.50;99.90
39019;DHT22;24786;51.984;5.872;2023-08-06T04:42:22;15.50;99.90
39019;DHT22;24786;51.984;5.872;2023-08-06T04:44:47;15.50;99.90
39019;DHT22;24786;51.984;5.872;2023-08-06T04:47:13;15.50;99.90
39019;DHT22;24786;51.984;5.872;2023-08-06T04:49:38;15.50;99.90
39019;DHT22;24786;51.984;5.872;2023-08-06T04:52:04;15.60;99.90
39019;DHT22;24786;51.984;5.872;2023-08-06T04:54:29;15.60;99.90
39019;DHT22;24786;51.984;5.872;2023-08-06T04:56:55;15.60;99.90
39019;DHT22;24786;51.984;5.872;2023-08-06T04:59:20;15.60;99.90
39019;DHT22;24786;51.984;5.872;2023-08-06T05:01:46;15.60;99.90
39019;DHT22;24786;51.984;5.872;2023-08-06T05:04:11;15.60;99.90
39019;DHT22;24786;51.984;5.872;2023-08-06T05:06:37;15.60;99.90
39019;DHT22;24786;51.984;5.872;2023-08-06T05:09:06;15.60;99.90
39019;DHT22;24786;51.984;5.872;2023-08-06T05:11:32;15.70;99.90
39019;DHT22;24786;51.984;5.872;2023-08-06T05:13:57;15.70;99.90
39019;DHT22;24786;51.984;5.872;2023-08-06T05:16:23;15.80;99.90
39019;DHT22;24786;51.984;5.872;2023-08-06T05:18:48;15.80;99.90
39019;DHT22;24786;51.984;5.872;2023-08-06T05:21:14;15.80;99.90
39019;DHT22;24786;51.984;5.872;2023-08-06T05:23:41;15.90;99.90
39019;DHT22;24786;51.984;5.872;2023-08-06T05:26:07;15.90;99.90
39019;DHT22;24786;51.984;5.872;2023-08-06T05:28:32;15.90;99.90
39019;DHT22;24786;51.984;5.872;2023-08-06T05:30:58;16.00;99.90
39019;DHT22;24786;51.984;5.872;2023-08-06T05:33:23;16.00;99.90
39019;DHT22;24786;51.984;5.872;2023-08-06T05:35:49;16.10;99.90
39019;DHT22;24786;51.984;5.872;2023-08-06T05:38:14;16.10;99.90
39019;DHT22;24786;51.984;5.872;2023-08-06T05:40:40;16.10;99.90
39019;DHT22;24786;51.984;5.872;2023-08-06T05:43:05;16.20;99.90
39019;DHT22;24786;51.984;5.872;2023-08-06T05:45:31;16.20;99.90
39019;DHT22;24786;51.984;5.872;2023-08-06T05:47:56;16.20;99.90
39019;DHT22;24786;51.984;5.872;2023-08-06T05:50:23;16.20;99.90
39019;DHT22;24786;51.984;5.872;2023-08-06T05:52:49;16.20;99.90
39019;DHT22;24786;51.984;5.872;2023-08-06T05:55:14;16.20;99.90
39019;DHT22;24786;51.984;5.872;2023-08-06T05:57:39;16.20;99.90
39019;DHT22;24786;51.984;5.872;2023-08-06T06:00:05;16.20;99.90
39019;DHT22;24786;51.984;5.872;2023-08-06T06:02:32;16.20;99.90
39019;DHT22;24786;51.984;5.872;2023-08-06T06:04:58;16.30;99.90
39019;DHT22;24786;51.984;5.872;2023-08-06T06:07:23;16.20;99.90
39019;DHT22;24786;51.984;5.872;2023-08-06T06:09:49;16.20;99.90
39019;DHT22;24786;51.984;5.872;2023-08-06T06:12:14;16.30;99.90
39019;DHT22;24786;51.984;5.872;2023-08-06T06:14:40;16.30;99.90
39019;DHT22;24786;51.984;5.872;2023-08-06T06:17:05;16.30;99.90
39019;DHT22;24786;51.984;5.872;2023-08-06T06:19:31;16.20;99.90
39019;DHT22;24786;51.984;5.872;2023-08-06T06:21:56;16.20;99.90
39019;DHT22;24786;51.984;5.872;2023-08-06T06:24:23;16.20;99.90
39019;DHT22;24786;51.984;5.872;2023-08-06T06:26:48;16.30;99.90
39019;DHT22;24786;51.984;5.872;2023-08-06T06:29:14;16.20;99.90
39019;DHT22;24786;51.984;5.872;2023-08-06T06:31:39;16.30;99.90
39019;DHT22;24786;51.984;5.872;2023-08-06T06:34:04;16.30;99.90
39019;DHT22;24786;51.984;5.872;2023-08-06T06:36:30;16.30;99.90
39019;DHT22;24786;51.984;5.872;2023-08-06T06:38:55;16.20;99.90
39019;DHT22;24786;51.984;5.872;2023-08-06T06:41:21;16.20;99.90
39019;DHT22;24786;51.984;5.872;2023-08-06T06:43:46;16.20;99.90
39019;DHT22;24786;51.984;5.872;2023-08-06T06:46:12;16.30;99.90
39019;DHT22;24786;51.984;5.872;2023-08-06T06:48:37;16.20;99.90
39019;DHT22;24786;51.984;5.872;2023-08-06T06:51:03;16.20;99.90
39019;DHT22;24786;51.984;5.872;2023-08-06T06:53:28;16.20;99.90
39019;DHT22;24786;51.984;5.872;2023-08-06T06:55:54;16.20;99.90
39019;DHT22;24786;51.984;5.872;2023-08-06T06:58:20;16.20;99.90
39019;DHT22;24786;51.984;5.872;2023-08-06T07:00:46;16.20;99.90
39019;DHT22;24786;51.984;5.872;2023-08-06T07:03:12;16.20;99.90
39019;DHT22;24786;51.984;5.872;2023-08-06T07:05:37;16.20;99.90
39019;DHT22;24786;51.984;5.872;2023-08-06T07:08:03;16.20;99.90
39019;DHT22;24786;51.984;5.872;2023-08-06T07:10:29;16.20;99.90
39019;DHT22;24786;51.984;5.872;2023-08-06T07:12:54;16.10;99.90
39019;DHT22;24786;51.984;5.872;2023-08-06T07:15:19;16.10;99.90
39019;DHT22;24786;51.984;5.872;2023-08-06T07:17:45;16.20;99.90
39019;DHT22;24786;51.984;5.872;2023-08-06T07:20:10;16.10;99.90
39019;DHT22;24786;51.984;5.872;2023-08-06T07:22:36;16.10;99.90
39019;DHT22;24786;51.984;5.872;2023-08-06T07:25:02;16.10;99.90
39019;DHT22;24786;51.984;5.872;2023-08-06T07:27:27;16.20;99.90
39019;DHT22;24786;51.984;5.872;2023-08-06T07:29:53;16.20;99.90
39019;DHT22;24786;51.984;5.872;2023-08-06T07:32:18;16.20;99.90
39019;DHT22;24786;51.984;5.872;2023-08-06T07:34:44;16.10;99.90
39019;DHT22;24786;51.984;5.872;2023-08-06T07:37:09;16.20;99.90
39019;DHT22;24786;51.984;5.872;2023-08-06T07:39:35;16.20;99.90
39019;DHT22;24786;51.984;5.872;2023-08-06T07:42:00;16.20;99.90
39019;DHT22;24786;51.984;5.872;2023-08-06T07:44:27;16.30;99.90
39019;DHT22;24786;51.984;5.872;2023-08-06T07:46:53;16.30;99.90
39019;DHT22;24786;51.984;5.872;2023-08-06T07:49:18;16.30;99.90
39019;DHT22;24786;51.984;5.872;2023-08-06T07:51:44;16.40;99.90
39019;DHT22;24786;51.984;5.872;2023-08-06T07:54:09;16.40;99.90
39019;DHT22;24786;51.984;5.872;2023-08-06T07:56:35;16.40;99.90
39019;DHT22;24786;51.984;5.872;2023-08-06T07:59:02;16.40;99.90
39019;DHT22;24786;51.984;5.872;2023-08-06T08:01:27;16.50;99.90
39019;DHT22;24786;51.984;5.872;2023-08-06T08:03:53;16.60;99.90
39019;DHT22;24786;51.984;5.872;2023-08-06T08:06:18;16.60;99.90
39019;DHT22;24786;51.984;5.872;2023-08-06T08:08:44;16.70;99.90
39019;DHT22;24786;51.984;5.872;2023-08-06T08:11:09;16.90;99.90
39019;DHT22;24786;51.984;5.872;2023-08-06T08:13:35;16.80;99.90
39019;DHT22;24786;51.984;5.872;2023-08-06T08:16:00;16.90;99.90
39019;DHT22;24786;51.984;5.872;2023-08-06T08:18:26;17.00;99.90
39019;DHT22;24786;51.984;5.872;2023-08-06T08:20:51;17.00;99.90
39019;DHT22;24786;51.984;5.872;2023-08-06T08:23:17;17.10;99.90
39019;DHT22;24786;51.984;5.872;2023-08-06T08:25:42;17.10;99.90
39019;DHT22;24786;51.984;5.872;2023-08-06T08:28:08;17.20;99.90
39019;DHT22;24786;51.984;5.872;2023-08-06T08:30:34;17.20;99.90
39019;DHT22;24786;51.984;5.872;2023-08-06T08:32:59;17.30;99.90
39019;DHT22;24786;51.984;5.872;2023-08-06T08:35:25;17.30;99.90
39019;DHT22;24786;51.984;5.872;2023-08-06T08:37:50;17.40;99.90
39019;DHT22;24786;51.984;5.872;2023-08-06T08:40:16;17.40;99.90
39019;DHT22;24786;51.984;5.872;2023-08-06T08:42:42;17.50;99.90
39019;DHT22;24786;51.984;5.872;2023-08-06T08:45:11;17.50;99.90
39019;DHT22;24786;51.984;5.872;2023-08-06T08:47:37;17.50;99.90
39019;DHT22;24786;51.984;5.872;2023-08-06T08:50:03;17.50;99.90
39019;DHT22;24786;51.984;5.872;2023-08-06T08:52:30;17.50;99.90
39019;DHT22;24786;51.984;5.872;2023-08-06T08:54:56;17.50;99.90
39019;DHT22;24786;51.984;5.872;2023-08-06T08:57:23;17.60;99.90
39019;DHT22;24786;51.984;5.872;2023-08-06T08:59:48;17.60;99.90
39019;DHT22;24786;51.984;5.872;2023-08-06T09:02:14;17.70;99.90
39019;DHT22;24786;51.984;5.872;2023-08-06T09:04:40;17.70;99.90
39019;DHT22;24786;51.984;5.872;2023-08-06T09:07:06;17.70;99.90
39019;DHT22;24786;51.984;5.872;2023-08-06T09:09:33;17.80;99.90
39019;DHT22;24786;51.984;5.872;2023-08-06T09:12:02;17.80;99.90
39019;DHT22;24786;51.984;5.872;2023-08-06T09:14:31;17.90;99.90
39019;DHT22;24786;51.984;5.872;2023-08-06T09:16:56;17.80;99.90
39019;DHT22;24786;51.984;5.872;2023-08-06T09:19:23;17.80;99.90
39019;DHT22;24786;51.984;5.872;2023-08-06T09:21:50;17.80;99.90
39019;DHT22;24786;51.984;5.872;2023-08-06T09:24:16;17.70;99.90
39019;DHT22;24786;51.984;5.872;2023-08-06T09:26:42;17.70;99.90
39019;DHT22;24786;51.984;5.872;2023-08-06T09:29:09;17.60;99.90
39019;DHT22;24786;51.984;5.872;2023-08-06T09:31:40;17.60;99.90
39019;DHT22;24786;51.984;5.872;2023-08-06T09:34:10;17.60;99.90
39019;DHT22;24786;51.984;5.872;2023-08-06T09:36:39;17.50;99.90
39019;DHT22;24786;51.984;5.872;2023-08-06T09:39:12;17.50;99.90
39019;DHT22;24786;51.984;5.872;2023-08-06T09:41:37;17.50;99.90
39019;DHT22;24786;51.984;5.872;2023-08-06T09:44:02;17.40;99.90
39019;DHT22;24786;51.984;5.872;2023-08-06T09:46:28;17.50;99.90
39019;DHT22;24786;51.984;5.872;2023-08-06T09:48:53;17.50;99.90
39019;DHT22;24786;51.984;5.872;2023-08-06T09:51:20;17.50;99.90
39019;DHT22;24786;51.984;5.872;2023-08-06T09:53:46;17.40;99.90
39019;DHT22;24786;51.984;5.872;2023-08-06T09:56:12;17.50;99.90
39019;DHT22;24786;51.984;5.872;2023-08-06T09:58:39;17.40;99.90
39019;DHT22;24786;51.984;5.872;2023-08-06T10:01:04;17.30;99.90
39019;DHT22;24786;51.984;5.872;2023-08-06T10:03:30;17.20;99.90
39019;DHT22;24786;51.984;5.872;2023-08-06T10:05:57;17.10;99.90
39019;DHT22;24786;51.984;5.872;2023-08-06T10:08:23;17.10;99.90
39019;DHT22;24786;51.984;5.872;2023-08-06T10:10:48;17.10;99.90
39019;DHT22;24786;51.984;5.872;2023-08-06T10:13:14;17.00;99.90
39019;DHT22;24786;51.984;5.872;2023-08-06T10:15:40;16.90;99.90
39019;DHT22;24786;51.984;5.872;2023-08-06T10:18:05;16.90;99.90
39019;DHT22;24786;51.984;5.872;2023-08-06T10:20:34;16.80;99.90
39019;DHT22;24786;51.984;5.872;2023-08-06T10:23:00;16.80;99.90
39019;DHT22;24786;51.984;5.872;2023-08-06T10:25:26;16.70;99.90
39019;DHT22;24786;51.984;5.872;2023-08-06T10:27:55;16.50;99.90
39019;DHT22;24786;51.984;5.872;2023-08-06T10:30:28;16.30;99.90
39019;DHT22;24786;51.984;5.872;2023-08-06T10:32:58;16.20;99.90
39019;DHT22;24786;51.984;5.872;2023-08-06T10:38:09;15.90;99.90
39019;DHT22;24786;51.984;5.872;2023-08-06T10:40:36;15.80;99.90
39019;DHT22;24786;51.984;5.872;2023-08-06T10:43:02;15.80;99.90
39019;DHT22;24786;51.984;5.872;2023-08-06T10:45:28;15.70;99.90
39019;DHT22;24786;51.984;5.872;2023-08-06T10:47:55;15.60;99.90
39019;DHT22;24786;51.984;5.872;2023-08-06T10:50:21;15.70;99.90
39019;DHT22;24786;51.984;5.872;2023-08-06T10:52:47;15.60;99.90
39019;DHT22;24786;51.984;5.872;2023-08-06T10:55:33;15.50;99.90
39019;DHT22;24786;51.984;5.872;2023-08-06T10:57:58;15.50;99.90
39019;DHT22;24786;51.984;5.872;2023-08-06T11:00:24;15.50;99.90
39019;DHT22;24786;51.984;5.872;2023-08-06T11:02:53;15.40;99.90
39019;DHT22;24786;51.984;5.872;2023-08-06T11:05:18;15.40;99.90
39019;DHT22;24786;51.984;5.872;2023-08-06T11:07:44;15.40;99.90
39019;DHT22;24786;51.984;5.872;2023-08-06T11:10:11;15.40;99.90
39019;DHT22;24786;51.984;5.872;2023-08-06T11:12:36;15.30;99.90
39019;DHT22;24786;51.984;5.872;2023-08-06T11:15:03;15.40;99.90
39019;DHT22;24786;51.984;5.872;2023-08-06T11:17:29;15.40;99.90
39019;DHT22;24786;51.984;5.872;2023-08-06T11:19:55;15.40;99.90
39019;DHT22;24786;51.984;5.872;2023-08-06T11:22:21;15.40;99.90
39019;DHT22;24786;51.984;5.872;2023-08-06T11:24:47;15.40;99.90
39019;DHT22;24786;51.984;5.872;2023-08-06T11:27:15;15.30;99.90
39019;DHT22;24786;51.984;5.872;2023-08-06T11:29:41;15.40;99.90
39019;DHT22;24786;51.984;5.872;2023-08-06T11:32:10;15.40;99.90
39019;DHT22;24786;51.984;5.872;2023-08-06T11:34:36;15.40;99.90
39019;DHT22;24786;51.984;5.872;2023-08-06T11:37:05;15.40;99.90
39019;DHT22;24786;51.984;5.872;2023-08-06T11:39:31;15.30;99.90
39019;DHT22;24786;51.984;5.872;2023-08-06T11:41:57;15.40;99.90
39019;DHT22;24786;51.984;5.872;2023-08-06T11:44:25;15.40;99.90
39019;DHT22;24786;51.984;5.872;2023-08-06T11:49:17;15.40;99.90
39019;DHT22;24786;51.984;5.872;2023-08-06T11:51:47;15.40;99.90
39019;DHT22;24786;51.984;5.872;2023-08-06T11:54:12;15.40;99.90
39019;DHT22;24786;51.984;5.872;2023-08-06T11:56:38;15.40;99.90
39019;DHT22;24786;51.984;5.872;2023-08-06T11:59:03;15.40;99.90
39019;DHT22;24786;51.984;5.872;2023-08-06T12:01:29;15.40;99.90
39019;DHT22;24786;51.984;5.872;2023-08-06T12:04:00;15.40;99.90
39019;DHT22;24786;51.984;5.872;2023-08-06T12:06:29;15.40;99.90
39019;DHT22;24786;51.984;5.872;2023-08-06T12:08:54;15.40;99.90
39019;DHT22;24786;51.984;5.872;2023-08-06T12:11:23;15.30;99.90
39019;DHT22;24786;51.984;5.872;2023-08-06T12:13:51;15.30;99.90
39019;DHT22;24786;51.984;5.872;2023-08-06T12:16:17;15.20;99.90
39019;DHT22;24786;51.984;5.872;2023-08-06T12:18:44;15.20;99.90
39019;DHT22;24786;51.984;5.872;2023-08-06T12:21:09;15.10;99.90
39019;DHT22;24786;51.984;5.872;2023-08-06T12:23:35;15.10;99.90
39019;DHT22;24786;51.984;5.872;2023-08-06T12:26:01;15.10;99.90
39019;DHT22;24786;51.984;5.872;2023-08-06T12:28:27;15.10;99.90
39019;DHT22;24786;51.984;5.872;2023-08-06T12:30:52;15.10;99.90
39019;DHT22;24786;51.984;5.872;2023-08-06T12:33:20;15.10;99.90
39019;DHT22;24786;51.984;5.872;2023-08-06T12:35:45;15.10;99.90
39019;DHT22;24786;51.984;5.872;2023-08-06T12:38:11;15.10;99.90
39019;DHT22;24786;51.984;5.872;2023-08-06T12:40:37;15.10;99.90
39019;DHT22;24786;51.984;5.872;2023-08-06T12:43:02;15.10;99.90
39019;DHT22;24786;51.984;5.872;2023-08-06T12:45:28;15.10;99.90
39019;DHT22;24786;51.984;5.872;2023-08-06T12:47:53;15.00;99.90
39019;DHT22;24786;51.984;5.872;2023-08-06T12:50:19;15.10;99.90
39019;DHT22;24786;51.984;5.872;2023-08-06T12:52:44;15.00;99.90
39019;DHT22;24786;51.984;5.872;2023-08-06T12:55:10;15.00;99.90
39019;DHT22;24786;51.984;5.872;2023-08-06T12:57:35;15.00;99.90
39019;DHT22;24786;51.984;5.872;2023-08-06T13:00:01;15.00;99.90
39019;DHT22;24786;51.984;5.872;2023-08-06T13:02:26;15.00;99.90
39019;DHT22;24786;51.984;5.872;2023-08-06T13:04:55;15.00;99.90
39019;DHT22;24786;51.984;5.872;2023-08-06T13:07:20;15.00;99.90
39019;DHT22;24786;51.984;5.872;2023-08-06T13:09:46;14.90;99.90
39019;DHT22;24786;51.984;5.872;2023-08-06T13:12:11;14.90;99.90
39019;DHT22;24786;51.984;5.872;2023-08-06T13:14:37;14.80;99.90
39019;DHT22;24786;51.984;5.872;2023-08-06T13:17:02;14.80;99.90
39019;DHT22;24786;51.984;5.872;2023-08-06T13:19:31;14.80;99.90
39019;DHT22;24786;51.984;5.872;2023-08-06T13:22:01;14.80;99.90
39019;DHT22;24786;51.984;5.872;2023-08-06T13:24:31;14.80;99.90
39019;DHT22;24786;51.984;5.872;2023-08-06T13:26:57;14.80;99.90
39019;DHT22;24786;51.984;5.872;2023-08-06T13:29:24;14.80;99.90
39019;DHT22;24786;51.984;5.872;2023-08-06T13:31:50;14.80;99.90
39019;DHT22;24786;51.984;5.872;2023-08-06T13:34:15;14.90;99.90
39019;DHT22;24786;51.984;5.872;2023-08-06T13:36:42;14.80;99.90
39019;DHT22;24786;51.984;5.872;2023-08-06T13:39:07;14.90;99.90
39019;DHT22;24786;51.984;5.872;2023-08-06T13:41:33;14.90;99.90
39019;DHT22;24786;51.984;5.872;2023-08-06T13:43:59;14.90;99.90
39019;DHT22;24786;51.984;5.872;2023-08-06T13:46:24;14.90;99.90
39019;DHT22;24786;51.984;5.872;2023-08-06T13:48:49;14.90;99.90
39019;DHT22;24786;51.984;5.872;2023-08-06T13:51:18;14.90;99.90
39019;DHT22;24786;51.984;5.872;2023-08-06T13:53:44;14.90;99.90
39019;DHT22;24786;51.984;5.872;2023-08-06T13:56:10;14.90;99.90
39019;DHT22;24786;51.984;5.872;2023-08-06T13:58:36;14.90;99.90
39019;DHT22;24786;51.984;5.872;2023-08-06T14:01:02;15.00;99.90
39019;DHT22;24786;51.984;5.872;2023-08-06T14:03:27;15.00;99.90
39019;DHT22;24786;51.984;5.872;2023-08-06T14:05:53;15.00;99.90
39019;DHT22;24786;51.984;5.872;2023-08-06T14:08:22;15.00;99.90
39019;DHT22;24786;51.984;5.872;2023-08-06T14:10:48;15.00;99.90
39019;DHT22;24786;51.984;5.872;2023-08-06T14:13:14;15.00;99.90
39019;DHT22;24786;51.984;5.872;2023-08-06T14:15:39;15.10;99.90
39019;DHT22;24786;51.984;5.872;2023-08-06T14:18:06;15.10;99.90
39019;DHT22;24786;51.984;5.872;2023-08-06T14:20:32;15.10;99.90
39019;DHT22;24786;51.984;5.872;2023-08-06T14:22:58;15.10;99.90
39019;DHT22;24786;51.984;5.872;2023-08-06T14:25:23;15.10;99.90
39019;DHT22;24786;51.984;5.872;2023-08-06T14:27:49;15.20;99.90
39019;DHT22;24786;51.984;5.872;2023-08-06T14:30:14;15.20;99.90
39019;DHT22;24786;51.984;5.872;2023-08-06T14:32:40;15.20;99.90
39019;DHT22;24786;51.984;5.872;2023-08-06T14:35:05;15.20;99.90
39019;DHT22;24786;51.984;5.872;2023-08-06T14:37:31;15.20;99.90
39019;DHT22;24786;51.984;5.872;2023-08-06T14:39:56;15.20;99.90
39019;DHT22;24786;51.984;5.872;2023-08-06T14:42:22;15.30;99.90
39019;DHT22;24786;51.984;5.872;2023-08-06T14:44:48;15.40;99.90
39019;DHT22;24786;51.984;5.872;2023-08-06T14:47:13;15.30;99.90
39019;DHT22;24786;51.984;5.872;2023-08-06T14:49:38;15.40;99.90
39019;DHT22;24786;51.984;5.872;2023-08-06T14:52:05;15.30;99.90
39019;DHT22;24786;51.984;5.872;2023-08-06T14:54:30;15.40;99.90
39019;DHT22;24786;51.984;5.872;2023-08-06T14:56:56;15.40;99.90
39019;DHT22;24786;51.984;5.872;2023-08-06T14:59:22;15.40;99.90
39019;DHT22;24786;51.984;5.872;2023-08-06T15:01:47;15.50;99.90
39019;DHT22;24786;51.984;5.872;2023-08-06T15:04:13;15.50;99.90
39019;DHT22;24786;51.984;5.872;2023-08-06T15:06:38;15.50;99.90
39019;DHT22;24786;51.984;5.872;2023-08-06T15:09:04;15.60;99.90
39019;DHT22;24786;51.984;5.872;2023-08-06T15:11:29;15.60;99.90
39019;DHT22;24786;51.984;5.872;2023-08-06T15:13:55;15.60;99.90
39019;DHT22;24786;51.984;5.872;2023-08-06T15:16:20;15.60;99.90
39019;DHT22;24786;51.984;5.872;2023-08-06T15:18:46;15.70;99.90
39019;DHT22;24786;51.984;5.872;2023-08-06T15:21:11;15.70;99.90
39019;DHT22;24786;51.984;5.872;2023-08-06T15:23:37;15.80;99.90
39019;DHT22;24786;51.984;5.872;2023-08-06T15:26:02;15.80;99.90
39019;DHT22;24786;51.984;5.872;2023-08-06T15:28:28;15.80;99.90
39019;DHT22;24786;51.984;5.872;2023-08-06T15:30:54;15.80;99.90